Crook, United Kingdom
Current Conditions -  °F | °C
As of 12:20 PM on Saturday 25 Oct 2014 (Local Time) from EGNV Reporting Station
Broken Clouds Broken Clouds  
Wind Chill: 12°   Ceiling: 2800
Heat Index: 12°   Visibility: 6mi
Dew Point:   Wind: 22mph
Humidity: 77%   Direction: 200°SSW
Pressure: 29.85"   Gusts: NA
Location:  54.71°N, 1.69°W
Report Text: EGNV 251120Z 20019KT 9999 BKN028 12/08 Q1011
Loading
Personal Weather Stations






























Interactive Weather Map
Tropical Storm Tracking
New forecast layout! Learn more

10-Day Weather Forecast

Advertisements
Track Severe Weather on mobile